createdAt,value
2017-12-12T00:02:02.297Z,98152
2017-12-12T00:04:31.390Z,98155
2017-12-12T00:07:01.259Z,98160
2017-12-12T00:09:30.474Z,98164
2017-12-12T00:11:59.549Z,98165
2017-12-12T00:14:29.000Z,98167
2017-12-12T00:16:58.128Z,98169
2017-12-12T00:19:27.214Z,98168
2017-12-12T00:21:56.339Z,98162
2017-12-12T00:24:25.765Z,98165
2017-12-12T00:26:54.883Z,98167
2017-12-12T00:29:24.035Z,98165
2017-12-12T00:31:53.490Z,98162
2017-12-12T00:34:22.716Z,98167
2017-12-12T00:36:51.871Z,98166
2017-12-12T00:39:21.791Z,98166
2017-12-12T00:41:51.701Z,98167
2017-12-12T00:44:20.866Z,98165
2017-12-12T00:46:50.023Z,98165
2017-12-12T00:49:19.935Z,98169
2017-12-12T00:51:49.121Z,98169
2017-12-12T00:54:18.425Z,98170
2017-12-12T00:56:47.580Z,98171
2017-12-12T00:59:16.721Z,98170
2017-12-12T01:01:47.041Z,98171
2017-12-12T01:04:16.956Z,98173
2017-12-12T01:06:46.996Z,98164
2017-12-12T01:09:16.174Z,98169
2017-12-12T01:11:45.294Z,98173
2017-12-12T01:14:14.463Z,98176
2017-12-12T01:16:44.480Z,98180
2017-12-12T01:19:13.580Z,98183
2017-12-12T01:21:42.727Z,98185
2017-12-12T01:24:11.850Z,98186
2017-12-12T01:26:40.927Z,98195
2017-12-12T01:29:10.000Z,98191
2017-12-12T01:31:41.503Z,98190
2017-12-12T01:34:10.602Z,98201
2017-12-12T01:36:39.722Z,98198
2017-12-12T01:39:09.354Z,98198
2017-12-12T01:41:38.459Z,98207
2017-12-12T01:44:07.573Z,98204
2017-12-12T01:46:36.810Z,98208
2017-12-12T01:49:05.915Z,98215
2017-12-12T01:51:35.033Z,98223
2017-12-12T01:54:04.279Z,98224
2017-12-12T01:56:33.458Z,98231
2017-12-12T01:59:02.605Z,98231
2017-12-12T02:01:31.826Z,98229
2017-12-12T02:04:00.962Z,98237
2017-12-12T02:06:30.888Z,98240
2017-12-12T02:09:00.058Z,98236
2017-12-12T02:11:29.154Z,98238
2017-12-12T02:13:59.065Z,98236
2017-12-12T02:16:29.036Z,98241
2017-12-12T02:18:58.132Z,98244
2017-12-12T02:21:27.270Z,98236
2017-12-12T02:23:56.444Z,98244
2017-12-12T02:26:26.360Z,98252
2017-12-12T02:28:55.514Z,98252
2017-12-12T02:31:24.718Z,98251
2017-12-12T02:33:53.855Z,98253
2017-12-12T02:36:22.983Z,98256
2017-12-12T02:38:52.987Z,98260
2017-12-12T02:41:22.766Z,98262
2017-12-12T02:43:51.877Z,98262
2017-12-12T02:46:23.336Z,98261
2017-12-12T02:48:53.224Z,98267
2017-12-12T02:51:22.360Z,98267
2017-12-12T02:53:52.313Z,98272
2017-12-12T02:56:21.445Z,98277
2017-12-12T02:58:50.578Z,98275
2017-12-12T03:01:19.766Z,98280
2017-12-12T03:03:48.987Z,98292
2017-12-12T03:06:18.167Z,98298
2017-12-12T03:08:47.954Z,98305
2017-12-12T03:11:17.192Z,98306
2017-12-12T03:13:46.482Z,98306
2017-12-12T03:16:16.599Z,98309
2017-12-12T03:18:46.003Z,98303
2017-12-12T03:21:16.101Z,98300
2017-12-12T03:23:45.371Z,98310
2017-12-12T03:26:14.607Z,98316
2017-12-12T03:28:44.836Z,98314
2017-12-12T03:31:14.036Z,98318
2017-12-12T03:33:43.972Z,98316
2017-12-12T03:36:13.257Z,98320
2017-12-12T03:38:43.478Z,98319
2017-12-12T03:41:13.433Z,98327
2017-12-12T03:43:42.595Z,98335
2017-12-12T03:46:11.736Z,98340
2017-12-12T03:48:40.863Z,98342
2017-12-12T03:51:10.067Z,98347
2017-12-12T03:53:39.974Z,98352
2017-12-12T03:56:09.116Z,98355
2017-12-12T03:58:38.994Z,98362
2017-12-12T04:01:08.156Z,98367
2017-12-12T04:03:38.059Z,98375
2017-12-12T04:06:07.258Z,98378
2017-12-12T04:08:36.466Z,98385
2017-12-12T04:11:06.190Z,98387
2017-12-12T04:13:35.313Z,98396
2017-12-12T04:16:04.560Z,98402
2017-12-12T04:18:33.693Z,98402
2017-12-12T04:21:02.798Z,98416
2017-12-12T04:23:31.994Z,98416
2017-12-12T04:26:01.118Z,98423
2017-12-12T04:28:30.231Z,98431
2017-12-12T04:30:59.362Z,98434
2017-12-12T04:33:28.483Z,98437
2017-12-12T04:35:57.588Z,98425
2017-12-12T04:38:28.640Z,98424
2017-12-12T04:40:57.776Z,98429
2017-12-12T04:43:26.906Z,98437
2017-12-12T04:45:56.877Z,98446
2017-12-12T04:48:26.054Z,98454
2017-12-12T04:50:55.375Z,98459
2017-12-12T04:53:25.313Z,98463
2017-12-12T04:55:54.434Z,98471
2017-12-12T04:58:23.527Z,98484
2017-12-12T05:00:52.791Z,98488
2017-12-12T05:03:21.919Z,98494
2017-12-12T05:05:51.894Z,98499
2017-12-12T05:08:21.614Z,98496
2017-12-12T05:10:51.550Z,98493
2017-12-12T05:13:20.742Z,98493
2017-12-12T05:15:49.947Z,98493
2017-12-12T05:18:19.141Z,98503
2017-12-12T05:20:48.415Z,98501
2017-12-12T05:23:17.923Z,98510
2017-12-12T05:25:47.224Z,98511
2017-12-12T05:28:16.447Z,98518
2017-12-12T05:30:46.285Z,98531
2017-12-12T05:33:15.540Z,98539
2017-12-12T05:35:44.856Z,98546
2017-12-12T05:38:14.258Z,98560
2017-12-12T05:40:43.453Z,98572
2017-12-12T05:43:13.362Z,98578
2017-12-12T05:45:43.302Z,98585
2017-12-12T05:48:13.243Z,98595
2017-12-12T05:50:43.216Z,98602
2017-12-12T05:53:12.412Z,98611
2017-12-12T05:55:41.565Z,98613
2017-12-12T05:58:10.705Z,98618
2017-12-12T06:00:40.637Z,98623
2017-12-12T06:03:10.514Z,98626
2017-12-12T06:05:39.706Z,98630
2017-12-12T06:08:10.059Z,98633
2017-12-12T06:10:39.200Z,98642
2017-12-12T06:13:09.139Z,98647
2017-12-12T06:15:39.057Z,98657
2017-12-12T06:18:08.946Z,98662
2017-12-12T06:20:38.124Z,98670
2017-12-12T06:23:07.710Z,98678
2017-12-12T06:25:36.827Z,98687
2017-12-12T06:28:06.820Z,98693
2017-12-12T06:30:36.323Z,98701
2017-12-12T06:33:05.455Z,98708
2017-12-12T06:35:34.620Z,98729
2017-12-12T06:38:03.783Z,98732
2017-12-12T06:40:32.931Z,98737
2017-12-12T06:43:02.036Z,98738
2017-12-12T06:45:32.419Z,98746
2017-12-12T06:48:01.547Z,98748
2017-12-12T06:50:30.720Z,98761
2017-12-12T06:52:59.891Z,98759
2017-12-12T06:55:29.790Z,98773
2017-12-12T06:57:58.950Z,98775
2017-12-12T07:00:28.773Z,98781
2017-12-12T07:02:57.885Z,98783
2017-12-12T07:05:26.978Z,98800
2017-12-12T07:07:56.623Z,98812
2017-12-12T07:10:25.767Z,98816
2017-12-12T07:12:54.891Z,98822
2017-12-12T07:15:24.080Z,98823
2017-12-12T07:17:53.283Z,98828
2017-12-12T07:20:22.398Z,98837
2017-12-12T07:22:52.368Z,98838
2017-12-12T07:25:21.495Z,98834
2017-12-12T07:27:50.721Z,98850
2017-12-12T07:30:20.134Z,98860
2017-12-12T07:32:49.318Z,98866
2017-12-12T07:35:19.256Z,98865
2017-12-12T07:37:48.797Z,98870
2017-12-12T07:40:17.936Z,98881
2017-12-12T07:42:47.071Z,98893
2017-12-12T07:45:17.068Z,98900
2017-12-12T07:47:46.188Z,98907
2017-12-12T07:50:16.159Z,98918
2017-12-12T07:52:45.385Z,98930
2017-12-12T07:55:14.512Z,98942
2017-12-12T07:57:43.669Z,98950
2017-12-12T08:00:13.587Z,98961
2017-12-12T08:02:42.734Z,98963
2017-12-12T08:05:11.882Z,98972
2017-12-12T08:07:41.115Z,98978
2017-12-12T08:10:10.203Z,98983
2017-12-12T08:12:39.294Z,98995
2017-12-12T08:15:08.561Z,98994
2017-12-12T08:17:37.654Z,99010
2017-12-12T08:20:06.739Z,99018
2017-12-12T08:22:36.362Z,99029
2017-12-12T08:25:05.499Z,99037
2017-12-12T08:27:34.574Z,99040
2017-12-12T08:30:04.518Z,99051
2017-12-12T08:32:33.717Z,99058
2017-12-12T08:35:02.818Z,99069
2017-12-12T08:37:31.954Z,99077
2017-12-12T08:40:01.055Z,99084
2017-12-12T08:42:30.183Z,99090
2017-12-12T08:44:59.506Z,99096
2017-12-12T08:47:28.579Z,99105
2017-12-12T08:49:57.673Z,99116
2017-12-12T08:52:26.920Z,99125
2017-12-12T08:54:56.009Z,99131
2017-12-12T08:57:25.087Z,99132
2017-12-12T08:59:55.011Z,99139
2017-12-12T09:02:24.087Z,99142
2017-12-12T09:04:53.947Z,99142
2017-12-12T09:07:23.205Z,99149
2017-12-12T09:09:52.368Z,99159
2017-12-12T09:12:21.508Z,99170
2017-12-12T09:14:51.444Z,99172
2017-12-12T09:17:20.555Z,99183
2017-12-12T09:19:49.713Z,99185
2017-12-12T09:22:20.343Z,99195
2017-12-12T09:24:50.233Z,99198
2017-12-12T09:27:19.438Z,99205
2017-12-12T09:29:48.617Z,99219
2017-12-12T09:32:17.949Z,99228
2017-12-12T09:34:47.349Z,99234
2017-12-12T09:37:16.650Z,99246
2017-12-12T09:39:46.613Z,99258
2017-12-12T09:42:15.853Z,99264
2017-12-12T09:44:46.800Z,99269
2017-12-12T09:47:15.942Z,99277
2017-12-12T09:49:45.834Z,99280
2017-12-12T09:52:15.485Z,99292
2017-12-12T09:54:44.606Z,99300
2017-12-12T09:57:14.538Z,99308
2017-12-12T09:59:43.831Z,99311
2017-12-12T10:02:13.469Z,99317
2017-12-12T10:04:43.185Z,99324
2017-12-12T10:07:12.346Z,99333
2017-12-12T10:09:41.988Z,99344
2017-12-12T10:12:11.114Z,99353
2017-12-12T10:14:42.191Z,99358
2017-12-12T10:17:11.449Z,99369
2017-12-12T10:19:40.564Z,99371
2017-12-12T10:22:09.921Z,99386
2017-12-12T10:24:39.321Z,99391
2017-12-12T10:27:08.554Z,99398
2017-12-12T10:29:38.525Z,99407
2017-12-12T10:32:10.470Z,99409
2017-12-12T10:34:39.970Z,99420
2017-12-12T10:37:09.201Z,99426
2017-12-12T10:39:38.362Z,99437
2017-12-12T10:42:08.314Z,99441
2017-12-12T10:44:37.489Z,99451
2017-12-12T10:47:06.624Z,99455
2017-12-12T10:49:35.961Z,99459
2017-12-12T10:52:05.100Z,99471
2017-12-12T10:54:34.363Z,99479
2017-12-12T10:57:04.111Z,99486
2017-12-12T10:59:33.231Z,99494
2017-12-12T11:02:02.330Z,99499
2017-12-12T11:04:31.759Z,99507
2017-12-12T11:07:00.988Z,99513
2017-12-12T11:09:30.126Z,99512
2017-12-12T11:12:00.151Z,99511
2017-12-12T11:14:30.910Z,99521
2017-12-12T11:17:00.380Z,99520
2017-12-12T11:19:29.783Z,99524
2017-12-12T11:21:58.880Z,99532
2017-12-12T11:24:28.304Z,99529
2017-12-12T11:26:57.690Z,99535
2017-12-12T11:29:27.059Z,99537
2017-12-12T11:31:56.792Z,99544
2017-12-12T11:34:28.073Z,99544
2017-12-12T11:36:57.572Z,99553
2017-12-12T11:39:26.694Z,99560
2017-12-12T11:41:56.136Z,99555
2017-12-12T11:44:25.562Z,99566
2017-12-12T11:46:54.768Z,99565
2017-12-12T11:49:24.452Z,99563
2017-12-12T11:51:54.163Z,99570
2017-12-12T11:54:23.769Z,99579
2017-12-12T11:56:53.516Z,99586
2017-12-12T11:59:24.124Z,99587
2017-12-12T12:01:53.776Z,99595
2017-12-12T12:04:23.496Z,99609
2017-12-12T12:06:53.055Z,99618
2017-12-12T12:09:23.179Z,99624
2017-12-12T12:11:53.199Z,99636
2017-12-12T12:14:23.138Z,99636
2017-12-12T12:16:52.451Z,99650
2017-12-12T12:19:22.180Z,99651
2017-12-12T12:21:52.442Z,99657
2017-12-12T12:24:22.494Z,99663
2017-12-12T12:26:51.892Z,99663
2017-12-12T12:29:21.052Z,99657
2017-12-12T12:31:52.916Z,99663
2017-12-12T12:34:22.080Z,99664
2017-12-12T12:36:51.460Z,99667
2017-12-12T12:39:22.008Z,99675
2017-12-12T12:41:51.448Z,99681
2017-12-12T12:44:20.716Z,99694
2017-12-12T12:46:50.086Z,99698
2017-12-12T12:49:19.549Z,99702
2017-12-12T12:51:48.800Z,99698
2017-12-12T12:54:19.742Z,99712
2017-12-12T12:56:50.115Z,99717
2017-12-12T12:59:19.304Z,99724
2017-12-12T13:01:48.753Z,99727
2017-12-12T13:04:18.124Z,99735
2017-12-12T13:06:48.573Z,99741
2017-12-12T13:09:17.978Z,99744
2017-12-12T13:11:47.413Z,99755
2017-12-12T13:14:16.599Z,99764
2017-12-12T13:16:46.135Z,99761
2017-12-12T13:19:15.374Z,99780
2017-12-12T13:21:44.888Z,99791
2017-12-12T13:24:14.428Z,99793
2017-12-12T13:26:44.105Z,99802
2017-12-12T13:29:13.717Z,99809
2017-12-12T13:31:43.727Z,99818
2017-12-12T13:34:13.627Z,99827
2017-12-12T13:36:44.341Z,99833
2017-12-12T13:39:14.928Z,99842
2017-12-12T13:41:44.285Z,99850
2017-12-12T13:44:14.792Z,99851
2017-12-12T13:46:44.075Z,99853
2017-12-12T13:49:14.730Z,99865
2017-12-12T13:51:45.089Z,99868
2017-12-12T13:54:15.620Z,99867
2017-12-12T13:56:45.190Z,99873
2017-12-12T13:59:14.938Z,99881
2017-12-12T14:01:44.308Z,99893
2017-12-12T14:04:14.250Z,99900
2017-12-12T14:06:45.078Z,99911
2017-12-12T14:09:14.363Z,99925
2017-12-12T14:11:44.353Z,99929
2017-12-12T14:14:14.505Z,99933
2017-12-12T14:16:43.875Z,99944
2017-12-12T14:19:13.944Z,99951
2017-12-12T14:21:43.410Z,99954
2017-12-12T14:24:13.484Z,99964
2017-12-12T14:26:42.681Z,99968
2017-12-12T14:29:13.389Z,99981
2017-12-12T14:31:43.466Z,99988
2017-12-12T14:34:12.683Z,99997
2017-12-12T14:36:41.839Z,100001
2017-12-12T14:39:10.948Z,100005
2017-12-12T14:41:40.043Z,100012
2017-12-12T14:44:09.810Z,100017
2017-12-12T14:46:39.705Z,100027
2017-12-12T14:49:08.850Z,100036
2017-12-12T14:51:38.808Z,100045
2017-12-12T14:54:07.915Z,100054
2017-12-12T14:56:37.006Z,100059
2017-12-12T14:59:06.131Z,100069
2017-12-12T15:01:35.220Z,100072
2017-12-12T15:04:04.313Z,100077
2017-12-12T15:06:35.090Z,100078
2017-12-12T15:09:04.492Z,100091
2017-12-12T15:11:33.612Z,100100
2017-12-12T15:14:02.744Z,100102
2017-12-12T15:16:32.732Z,100105
2017-12-12T15:19:02.040Z,100114
2017-12-12T15:21:32.083Z,100117
2017-12-12T15:24:01.240Z,100134
2017-12-12T15:26:31.186Z,100138
2017-12-12T15:29:00.319Z,100140
2017-12-12T15:31:29.499Z,100143
2017-12-12T15:33:58.612Z,100147
2017-12-12T15:36:27.945Z,100156
2017-12-12T15:38:57.199Z,100159
2017-12-12T15:41:27.382Z,100164
2017-12-12T15:43:56.564Z,100170
2017-12-12T15:46:26.004Z,100176
2017-12-12T15:48:55.192Z,100181
2017-12-12T15:51:25.024Z,100185
2017-12-12T15:53:54.323Z,100193
2017-12-12T15:56:23.700Z,100197
2017-12-12T15:58:53.218Z,100204
2017-12-12T16:01:23.235Z,100206
2017-12-12T16:03:52.715Z,100211
2017-12-12T16:06:23.775Z,100213
2017-12-12T16:08:52.934Z,100221
2017-12-12T16:11:22.848Z,100223
2017-12-12T16:13:52.480Z,100235
2017-12-12T16:16:22.393Z,100233
2017-12-12T16:18:51.550Z,100231
2017-12-12T16:21:20.852Z,100244
2017-12-12T16:23:49.993Z,100250
2017-12-12T16:26:19.179Z,100254
2017-12-12T16:28:48.886Z,100258
2017-12-12T16:31:18.800Z,100269
2017-12-12T16:33:48.028Z,100268
2017-12-12T16:36:17.649Z,100277
2017-12-12T16:38:47.621Z,100284
2017-12-12T16:41:16.880Z,100290
2017-12-12T16:43:46.855Z,100299
2017-12-12T16:46:16.138Z,100308
2017-12-12T16:48:49.383Z,100311
2017-12-12T16:51:18.681Z,100313
2017-12-12T16:53:47.905Z,100325
2017-12-12T16:56:17.697Z,100329
2017-12-12T16:58:48.363Z,100331
2017-12-12T17:01:17.728Z,100331
2017-12-12T17:03:48.577Z,100340
2017-12-12T17:06:19.453Z,100347
2017-12-12T17:08:53.075Z,100350
2017-12-12T17:11:22.245Z,100358
2017-12-12T17:13:51.464Z,100362
2017-12-12T17:16:20.887Z,100363
2017-12-12T17:18:54.540Z,100361
2017-12-12T17:21:24.688Z,100363
2017-12-12T17:23:54.212Z,100363
2017-12-12T17:26:23.551Z,100367
2017-12-12T17:28:53.134Z,100369
2017-12-12T17:31:22.647Z,100374
2017-12-12T17:33:52.106Z,100378
2017-12-12T17:36:22.267Z,100383
2017-12-12T17:38:51.792Z,100386
2017-12-12T17:41:21.365Z,100392
2017-12-12T17:43:52.415Z,100388
2017-12-12T17:46:21.972Z,100390
2017-12-12T17:48:52.529Z,100396
2017-12-12T17:51:22.018Z,100401
2017-12-12T17:53:52.094Z,100403
2017-12-12T17:56:21.744Z,100405
2017-12-12T17:58:52.572Z,100407
2017-12-12T18:01:24.747Z,100410
2017-12-12T18:03:54.979Z,100411
2017-12-12T18:06:24.437Z,100418
2017-12-12T18:08:54.251Z,100422
2017-12-12T18:11:24.172Z,100424
2017-12-12T18:13:53.877Z,100425
2017-12-12T18:16:22.999Z,100428
2017-12-12T18:18:52.167Z,100435
2017-12-12T18:21:21.363Z,100439
2017-12-12T18:23:50.563Z,100442
2017-12-12T18:26:20.128Z,100448
2017-12-12T18:28:49.370Z,100452
2017-12-12T18:31:18.568Z,100454
2017-12-12T18:33:49.480Z,100459
2017-12-12T18:36:18.770Z,100460
2017-12-12T18:38:51.241Z,100459
2017-12-12T18:41:20.555Z,100465
2017-12-12T18:43:50.115Z,100457
2017-12-12T18:46:19.466Z,100459
2017-12-12T18:48:49.646Z,100464
2017-12-12T18:51:19.142Z,100470
2017-12-12T18:53:48.854Z,100476
2017-12-12T18:56:19.428Z,100478
2017-12-12T18:58:49.831Z,100484
2017-12-12T19:01:19.023Z,100491
2017-12-12T19:03:48.714Z,100486
2017-12-12T19:06:18.564Z,100495
2017-12-12T19:08:48.053Z,100500
2017-12-12T19:11:19.666Z,100507
2017-12-12T19:13:50.573Z,100517
2017-12-12T19:16:25.609Z,100513
2017-12-12T19:18:56.286Z,100511
2017-12-12T19:21:25.492Z,100512
2017-12-12T19:23:54.755Z,100512
2017-12-12T19:26:27.742Z,100506
2017-12-12T19:28:57.699Z,100498
2017-12-12T19:31:31.504Z,100498
2017-12-12T19:34:03.207Z,100485
2017-12-12T19:36:33.475Z,100498
2017-12-12T19:39:02.789Z,100493
2017-12-12T19:41:31.970Z,100494
2017-12-12T19:44:01.200Z,100502
2017-12-12T19:46:30.473Z,100505
2017-12-12T19:49:00.599Z,100505
2017-12-12T19:51:29.763Z,100512
2017-12-12T19:54:00.287Z,100510
2017-12-12T19:59:10.873Z,100521
2017-12-12T20:01:41.636Z,100524
2017-12-12T20:04:11.672Z,100520
2017-12-12T20:06:41.558Z,100523
2017-12-12T20:09:10.756Z,100524
2017-12-12T20:11:48.426Z,100523
2017-12-12T20:14:18.132Z,100526
2017-12-12T20:16:50.238Z,100528
2017-12-12T20:19:22.880Z,100529
2017-12-12T20:21:52.268Z,100532
2017-12-12T20:24:21.963Z,100537
2017-12-12T20:26:54.296Z,100538
2017-12-12T20:29:24.181Z,100547
2017-12-12T20:31:56.075Z,100544
2017-12-12T20:34:25.532Z,100539
2017-12-12T20:36:55.433Z,100548
2017-12-12T20:39:24.732Z,100541
2017-12-12T20:41:54.359Z,100544
2017-12-12T20:44:24.138Z,100541
2017-12-12T20:46:55.991Z,100534
2017-12-12T20:49:27.507Z,100531
2017-12-12T20:51:58.462Z,100540
2017-12-12T20:54:27.940Z,100543
2017-12-12T20:57:02.777Z,100540
2017-12-12T20:59:34.367Z,100535
2017-12-12T21:02:04.401Z,100531
2017-12-12T21:04:34.147Z,100537
2017-12-12T21:07:09.463Z,100539
2017-12-12T21:09:43.175Z,100543
2017-12-12T21:12:13.987Z,100543
2017-12-12T21:14:44.340Z,100546
2017-12-12T21:17:14.351Z,100547
2017-12-12T21:19:43.749Z,100551
2017-12-12T21:22:13.947Z,100552
2017-12-12T21:24:43.190Z,100551
2017-12-12T21:27:13.105Z,100543
2017-12-12T21:29:42.378Z,100546
2017-12-12T21:32:11.575Z,100544
2017-12-12T21:34:40.731Z,100545
2017-12-12T21:37:09.829Z,100547
2017-12-12T21:39:39.576Z,100545
2017-12-12T21:42:08.706Z,100545
2017-12-12T21:44:37.853Z,100537
2017-12-12T21:47:07.714Z,100538
2017-12-12T21:49:36.859Z,100547
2017-12-12T21:52:06.002Z,100539
2017-12-12T21:54:35.577Z,100533
2017-12-12T21:57:04.996Z,100537
2017-12-12T21:59:34.113Z,100542
2017-12-12T22:02:03.340Z,100542
2017-12-12T22:04:33.222Z,100545
2017-12-12T22:07:02.333Z,100547
2017-12-12T22:09:31.487Z,100546
2017-12-12T22:12:01.381Z,100549
2017-12-12T22:14:31.390Z,100547
2017-12-12T22:17:00.567Z,100548
2017-12-12T22:19:30.418Z,100557
2017-12-12T22:21:59.549Z,100559
2017-12-12T22:24:29.296Z,100560
2017-12-12T22:26:58.398Z,100564
2017-12-12T22:29:27.502Z,100558
2017-12-12T22:31:56.626Z,100559
2017-12-12T22:34:25.729Z,100566
2017-12-12T22:36:54.859Z,100558
2017-12-12T22:39:24.786Z,100559
2017-12-12T22:41:54.404Z,100558
2017-12-12T22:44:23.529Z,100552
2017-12-12T22:46:53.078Z,100562
2017-12-12T22:49:22.278Z,100570
2017-12-12T22:51:52.919Z,100570
2017-12-12T22:54:22.537Z,100571
2017-12-12T22:56:52.487Z,100575
2017-12-12T22:59:21.887Z,100578
2017-12-12T23:01:51.248Z,100578
2017-12-12T23:04:21.017Z,100588
2017-12-12T23:06:51.958Z,100590
2017-12-12T23:09:21.315Z,100585
2017-12-12T23:11:51.302Z,100582
2017-12-12T23:14:20.663Z,100585
2017-12-12T23:16:50.047Z,100594
2017-12-12T23:19:19.370Z,100584
2017-12-12T23:21:48.545Z,100590
2017-12-12T23:24:18.925Z,100588
2017-12-12T23:26:48.368Z,100590
2017-12-12T23:29:17.562Z,100583
2017-12-12T23:31:47.067Z,100592
2017-12-12T23:34:16.545Z,100589
2017-12-12T23:36:45.876Z,100593
2017-12-12T23:39:15.212Z,100594
2017-12-12T23:41:44.398Z,100585
2017-12-12T23:44:13.591Z,100587
2017-12-12T23:46:43.619Z,100587
2017-12-12T23:49:12.799Z,100587
2017-12-12T23:51:41.899Z,100587
2017-12-12T23:54:11.133Z,100589
2017-12-12T23:56:40.335Z,100587
2017-12-12T23:59:09.446Z,100590
